createdAt,value
2022-08-07T00:00:14.787Z,101783.47
2022-08-07T00:02:36.255Z,101791.00
2022-08-07T00:04:45.280Z,101792.16
2022-08-07T00:06:51.601Z,101790.84
2022-08-07T00:08:54.327Z,101785.91
2022-08-07T00:10:58.375Z,101792.28
2022-08-07T00:13:09.741Z,101796.56
2022-08-07T00:15:25.853Z,101794.72
2022-08-07T00:17:40.560Z,101796.03
2022-08-07T00:20:00.380Z,101794.19
2022-08-07T00:22:05.187Z,101803.19
2022-08-07T00:24:07.884Z,101796.59
2022-08-07T00:26:18.792Z,101800.03
2022-08-07T00:28:33.900Z,101800.69
2022-08-07T00:30:36.453Z,101794.78
2022-08-07T00:32:38.470Z,101800.19
2022-08-07T00:34:41.415Z,101793.94
2022-08-07T00:36:43.959Z,101799.50
2022-08-07T00:38:45.953Z,101802.63
2022-08-07T00:40:48.007Z,101796.03
2022-08-07T00:42:50.280Z,101803.72
2022-08-07T00:44:54.715Z,101806.69
2022-08-07T00:46:56.714Z,101800.91
2022-08-07T00:49:01.893Z,101796.09
2022-08-07T00:51:04.322Z,101802.00
2022-08-07T00:53:06.478Z,101804.91
2022-08-07T00:55:11.408Z,101803.28
2022-08-07T00:57:19.560Z,101800.81
2022-08-07T00:59:35.304Z,101799.69
2022-08-07T01:01:41.571Z,101805.53
2022-08-07T01:03:56.981Z,101798.97
2022-08-07T01:06:03.201Z,101794.03
2022-08-07T01:08:06.117Z,101798.63
2022-08-07T01:10:12.615Z,101808.34
2022-08-07T01:12:29.290Z,101807.63
2022-08-07T01:14:33.160Z,101802.56
2022-08-07T01:16:43.129Z,101803.41
2022-08-07T01:18:48.906Z,101798.47
2022-08-07T01:21:17.509Z,101794.03
2022-08-07T01:23:34.734Z,101794.19
2022-08-07T01:25:55.845Z,101797.78
2022-08-07T01:27:58.483Z,101791.16
2022-08-07T01:30:01.849Z,101800.00
2022-08-07T01:32:05.522Z,101799.34
2022-08-07T01:34:14.434Z,101793.75
2022-08-07T01:36:16.786Z,101798.06
2022-08-07T01:38:25.679Z,101804.25
2022-08-07T01:40:28.064Z,101800.25
2022-08-07T01:42:37.586Z,101796.84
2022-08-07T01:44:42.489Z,101804.53
2022-08-07T01:46:51.394Z,101799.47
2022-08-07T01:48:53.404Z,101802.53
2022-08-07T01:51:08.253Z,101796.28
2022-08-07T01:54:09.478Z,101803.09
2022-08-07T01:55:56.590Z,101790.78
2022-08-07T01:58:06.096Z,101807.13
2022-08-07T02:00:28.654Z,101798.09
2022-08-07T02:03:12.286Z,101803.91
2022-08-07T02:05:16.147Z,101804.56
2022-08-07T02:07:50.153Z,101808.09
2022-08-07T02:09:58.606Z,101804.91
2022-08-07T02:12:17.627Z,101816.63
2022-08-07T02:14:40.595Z,101805.59
2022-08-07T02:16:42.001Z,101804.47
2022-08-07T02:18:45.298Z,101805.81
2022-08-07T02:20:52.103Z,101811.88
2022-08-07T02:23:03.637Z,101809.72
2022-08-07T02:25:13.866Z,101803.78
2022-08-07T02:27:21.355Z,101806.44
2022-08-07T02:29:24.798Z,101809.81
2022-08-07T02:31:29.427Z,101815.50
2022-08-07T02:33:33.015Z,101809.94
2022-08-07T02:36:30.176Z,101797.94
2022-08-07T02:38:16.440Z,101809.03
2022-08-07T02:40:35.116Z,101808.00
2022-08-07T02:42:37.534Z,101808.19
2022-08-07T02:44:42.262Z,101807.06
2022-08-07T02:46:52.692Z,101811.13
2022-08-07T02:48:55.382Z,101820.00
2022-08-07T02:50:57.508Z,101810.63
2022-08-07T02:53:07.521Z,101808.06
2022-08-07T02:55:28.413Z,101812.47
2022-08-07T02:57:42.481Z,101817.91
2022-08-07T02:59:55.258Z,101821.84
2022-08-07T03:02:03.619Z,101810.75
2022-08-07T03:04:07.707Z,101812.69
2022-08-07T03:06:16.507Z,101812.16
2022-08-07T03:08:29.557Z,101820.16
2022-08-07T03:10:32.108Z,101816.63
2022-08-07T03:12:34.366Z,101815.78
2022-08-07T03:14:36.826Z,101819.59
2022-08-07T03:16:38.954Z,101823.81
2022-08-07T03:18:44.148Z,101823.38
2022-08-07T03:20:46.282Z,101817.22
2022-08-07T03:22:50.176Z,101817.00
2022-08-07T03:24:52.526Z,101817.31
2022-08-07T03:26:58.806Z,101819.50
2022-08-07T03:29:02.464Z,101819.50
2022-08-07T06:06:09.394Z,101857.44
2022-08-07T06:08:29.444Z,101867.91
2022-08-07T06:10:33.003Z,101859.56
2022-08-07T06:12:35.008Z,101851.69
2022-08-07T06:14:37.022Z,101859.38
2022-08-07T06:16:39.063Z,101857.06
2022-08-07T06:18:41.251Z,101861.66
2022-08-07T06:20:50.586Z,101862.44
2022-08-07T06:23:25.105Z,101863.41
2022-08-07T06:25:34.760Z,101857.81
2022-08-07T06:27:59.580Z,101861.22
2022-08-07T06:30:01.047Z,101863.22
2022-08-07T06:32:03.220Z,101863.34
2022-08-07T06:34:06.765Z,101864.28
2022-08-07T06:36:13.833Z,101864.69
2022-08-07T06:38:20.417Z,101865.97
2022-08-07T06:40:22.856Z,101868.03
2022-08-07T06:42:37.479Z,101863.09
2022-08-07T06:44:39.909Z,101864.69
2022-08-07T06:46:41.945Z,101863.09
2022-08-07T06:48:45.997Z,101868.78
2022-08-07T06:50:48.123Z,101862.66
2022-08-07T06:52:53.703Z,101868.25
2022-08-07T06:55:32.990Z,101870.06
2022-08-07T06:57:19.887Z,101867.63
2022-08-07T07:00:13.923Z,101879.97
2022-08-07T07:02:06.206Z,101878.13
2022-08-07T07:04:28.636Z,101870.41
2022-08-07T07:06:32.165Z,101877.75
2022-08-07T07:08:47.032Z,101875.97
2022-08-07T07:10:56.700Z,101880.56
2022-08-07T07:13:14.704Z,101876.31
2022-08-07T07:15:35.853Z,101884.41
2022-08-07T07:17:56.755Z,101877.53
2022-08-07T07:20:01.003Z,101871.31
2022-08-07T07:22:33.943Z,101868.19
2022-08-07T07:24:27.326Z,101863.66
2022-08-07T07:26:34.801Z,101868.06
2022-08-07T07:29:56.492Z,101868.78
2022-08-07T07:31:23.794Z,101865.16
2022-08-07T07:33:26.653Z,101851.16
2022-08-07T07:35:33.533Z,101858.63
2022-08-07T07:37:49.793Z,101855.47
2022-08-07T07:39:56.468Z,101856.41
2022-08-07T07:42:13.668Z,101851.59
2022-08-07T07:44:25.882Z,101853.47
2022-08-07T07:46:53.589Z,101848.75
2022-08-07T07:49:00.214Z,101859.22
2022-08-07T07:51:11.061Z,101851.97
2022-08-07T07:53:23.093Z,101853.69
2022-08-07T07:55:27.699Z,101852.47
2022-08-07T07:57:51.455Z,101846.44
2022-08-07T07:59:55.935Z,101846.84
2022-08-07T08:02:02.855Z,101843.94
2022-08-07T08:04:10.254Z,101840.63
2022-08-07T08:06:13.809Z,101847.06
2022-08-07T08:08:35.185Z,101850.88
2022-08-07T08:10:39.033Z,101836.53
2022-08-07T08:12:52.261Z,101845.06
2022-08-07T08:14:54.942Z,101845.59
2022-08-07T08:16:57.839Z,101844.94
2022-08-07T08:20:16.245Z,101838.81
2022-08-07T08:22:07.854Z,101845.25
2022-08-07T08:24:36.075Z,101841.81
2022-08-07T08:26:58.071Z,101838.75
2022-08-07T08:29:02.254Z,101835.00
2022-08-07T08:31:06.563Z,101839.69
2022-08-07T08:33:15.053Z,101835.66
2022-08-07T08:35:22.059Z,101837.38
2022-08-07T08:37:59.254Z,101842.78
2022-08-07T08:39:55.211Z,101839.66
2022-08-07T08:42:09.262Z,101838.56
2022-08-07T08:44:44.684Z,101841.06
2022-08-07T08:47:09.897Z,101838.31
2022-08-07T08:50:02.565Z,101839.28
2022-08-07T08:52:32.218Z,101837.34
2022-08-07T08:55:07.788Z,101840.47
2022-08-07T08:57:25.562Z,101840.03
2022-08-07T08:59:53.613Z,101835.03
2022-08-07T09:02:34.817Z,101836.97
2022-08-07T09:05:03.988Z,101826.66
2022-08-07T09:07:45.907Z,101835.47
2022-08-07T09:10:10.662Z,101830.16
2022-08-07T09:12:41.390Z,101831.72
2022-08-07T09:16:25.455Z,101831.56
2022-08-07T09:18:16.871Z,101830.31
2022-08-07T09:21:02.683Z,101827.56
2022-08-07T09:24:30.449Z,101823.69
2022-08-07T09:25:53.428Z,101828.63
2022-08-07T09:30:01.528Z,101820.78
2022-08-07T09:31:03.619Z,101818.72
2022-08-07T09:33:52.701Z,101817.84
2022-08-07T09:36:06.347Z,101809.50
2022-08-07T09:38:14.167Z,101808.44
2022-08-07T09:40:30.650Z,101805.31
2022-08-07T09:42:51.459Z,101813.44
2022-08-07T09:47:25.584Z,101807.59
2022-08-07T09:48:03.997Z,101807.19
2022-08-07T09:50:26.592Z,101799.91
2022-08-07T09:52:56.232Z,101808.56
2022-08-07T09:56:03.326Z,101799.09
2022-08-07T09:58:42.551Z,101793.72
2022-08-07T10:01:51.131Z,101794.78
2022-08-07T10:04:33.022Z,101791.00
2022-08-07T10:06:59.890Z,101785.19
2022-08-07T10:09:42.768Z,101787.41
2022-08-07T10:12:21.937Z,101787.31
2022-08-07T10:14:40.312Z,101777.78
2022-08-07T10:17:20.893Z,101780.03
2022-08-07T10:19:49.421Z,101768.09
2022-08-07T10:23:01.447Z,101754.84
2022-08-07T10:25:43.731Z,101757.53
2022-08-07T10:28:12.621Z,101758.19
2022-08-07T10:30:59.427Z,101755.75
2022-08-07T10:34:05.785Z,101752.94
2022-08-07T10:36:29.673Z,101748.59
2022-08-07T10:39:08.475Z,101757.53
2022-08-07T10:41:52.368Z,101757.66
2022-08-07T10:44:33.722Z,101760.09
2022-08-07T10:46:50.704Z,101761.28
2022-08-07T10:49:14.814Z,101760.53
2022-08-07T10:51:39.583Z,101765.75
2022-08-07T10:54:19.708Z,101768.88
2022-08-07T10:56:54.983Z,101766.00
2022-08-07T10:59:30.394Z,101759.84
2022-08-07T11:01:51.526Z,101753.06
2022-08-07T11:05:10.138Z,101757.47
2022-08-07T11:07:59.064Z,101748.56
2022-08-07T11:10:07.341Z,101743.75
2022-08-07T11:13:02.117Z,101747.84
2022-08-07T11:15:18.089Z,101744.66
2022-08-07T11:17:45.827Z,101741.00
2022-08-07T11:19:57.927Z,101741.47
2022-08-07T11:22:19.181Z,101750.41
2022-08-07T11:24:56.787Z,101746.78
2022-08-07T11:27:17.735Z,101739.50
2022-08-07T11:29:49.120Z,101736.34
2022-08-07T11:32:40.684Z,101738.88
2022-08-07T11:34:57.384Z,101739.63
2022-08-07T11:37:57.262Z,101735.06
2022-08-07T11:40:19.240Z,101734.81
2022-08-07T11:42:52.672Z,101730.47
2022-08-07T11:45:57.800Z,101722.88
2022-08-07T11:49:27.454Z,101726.59
2022-08-07T11:51:52.896Z,101721.75
2022-08-07T11:54:29.661Z,101717.38
2022-08-07T11:57:00.709Z,101714.19
2022-08-07T12:00:11.499Z,101707.34
2022-08-07T12:02:31.988Z,101716.66
2022-08-07T12:04:59.523Z,101713.03
2022-08-07T12:07:18.972Z,101709.78
2022-08-07T12:09:42.449Z,101708.97
2022-08-07T12:12:10.248Z,101701.28
2022-08-07T12:14:22.295Z,101700.41
2022-08-07T12:16:36.736Z,101699.88
2022-08-07T12:18:50.730Z,101687.16
2022-08-07T12:21:55.758Z,101695.91
2022-08-07T12:24:37.497Z,101681.56
2022-08-07T12:26:40.644Z,101683.81
2022-08-07T12:28:59.289Z,101681.88
2022-08-07T12:31:09.379Z,101676.53
2022-08-07T12:33:28.148Z,101680.66
2022-08-07T12:35:36.326Z,101680.34
2022-08-07T12:38:09.721Z,101685.34
2022-08-07T12:40:02.758Z,101669.63
2022-08-07T12:42:04.906Z,101672.28
2022-08-07T12:44:17.167Z,101672.50
2022-08-07T12:47:01.034Z,101673.31
2022-08-07T12:49:44.720Z,101669.94
2022-08-07T12:52:18.108Z,101670.72
2022-08-07T12:54:38.190Z,101669.94
2022-08-07T12:56:51.207Z,101660.13
2022-08-07T12:58:59.600Z,101661.56
2022-08-07T13:01:04.486Z,101660.72
2022-08-07T13:04:04.839Z,101655.94
2022-08-07T13:06:21.617Z,101651.88
2022-08-07T13:08:52.796Z,101651.44
2022-08-07T13:12:03.512Z,101650.47
2022-08-07T13:14:03.730Z,101647.13
2022-08-07T13:17:02.516Z,101653.56
2022-08-07T13:19:34.958Z,101642.81
2022-08-07T13:22:02.072Z,101641.63
2022-08-07T13:24:29.432Z,101646.13
2022-08-07T13:27:20.576Z,101645.63
2022-08-07T13:29:58.343Z,101639.19
2022-08-07T13:32:15.288Z,101637.75
2022-08-07T13:35:08.461Z,101643.56
2022-08-07T13:37:26.036Z,101654.56
2022-08-07T13:40:33.881Z,101642.97
2022-08-07T13:42:02.129Z,101639.63
2022-08-07T13:44:10.232Z,101648.69
2022-08-07T13:46:25.521Z,101643.47
2022-08-07T13:48:34.575Z,101636.00
2022-08-07T13:50:45.073Z,101631.97
2022-08-07T13:53:02.401Z,101628.72
2022-08-07T13:55:25.875Z,101638.19
2022-08-07T13:57:37.728Z,101625.97
2022-08-07T13:59:45.543Z,101630.50
2022-08-07T14:02:03.729Z,101623.59
2022-08-07T14:04:12.247Z,101623.59
2022-08-07T14:06:14.651Z,101624.78
2022-08-07T14:08:16.810Z,101625.41
2022-08-07T14:10:24.676Z,101627.16
2022-08-07T14:13:05.377Z,101628.50
2022-08-07T14:15:10.541Z,101623.44
2022-08-07T14:18:12.486Z,101619.78
2022-08-07T14:22:34.210Z,101617.78
2022-08-07T14:22:40.944Z,101622.13
2022-08-07T14:24:41.453Z,101616.94
2022-08-07T14:30:02.941Z,101612.16
2022-08-07T14:31:56.642Z,101603.31
2022-08-07T14:34:00.061Z,101610.97
2022-08-07T14:36:02.070Z,101608.16
2022-08-07T14:38:05.884Z,101607.00
2022-08-07T14:40:16.871Z,101600.94
2022-08-07T14:42:32.435Z,101594.44
2022-08-07T14:44:36.532Z,101599.25
2022-08-07T14:46:51.731Z,101596.81
2022-08-07T14:49:17.318Z,101604.13
2022-08-07T14:54:30.382Z,101591.22
2022-08-07T14:56:14.839Z,101605.47
2022-08-07T14:58:34.811Z,101596.81
2022-08-07T15:00:36.829Z,101601.59
2022-08-07T15:02:39.198Z,101595.84
2022-08-07T15:04:53.262Z,101596.25
2022-08-07T15:06:55.499Z,101601.84
2022-08-07T15:09:03.007Z,101597.47
2022-08-07T15:11:53.317Z,101597.81
2022-08-07T15:13:56.709Z,101596.44
2022-08-07T15:18:41.606Z,101587.31
2022-08-07T15:23:20.322Z,101591.13
2022-08-07T15:25:36.451Z,101585.41
2022-08-07T15:30:22.270Z,101583.66
2022-08-07T15:32:38.937Z,101581.25
2022-08-07T15:37:10.057Z,101572.50
2022-08-07T15:39:12.702Z,101580.47
2022-08-07T15:42:42.347Z,101575.00
2022-08-07T15:43:57.123Z,101567.34
2022-08-07T15:46:04.498Z,101569.22
2022-08-07T15:48:32.095Z,101565.03
2022-08-07T15:51:07.949Z,101568.31
2022-08-07T15:53:05.485Z,101567.47
2022-08-07T15:55:11.484Z,101566.06
2022-08-07T15:57:28.055Z,101564.06
2022-08-07T15:59:44.124Z,101558.50
2022-08-07T16:02:02.441Z,101562.34
2022-08-07T16:04:14.606Z,101559.31
2022-08-07T16:06:24.667Z,101559.84
2022-08-07T16:08:30.264Z,101557.19
2022-08-07T16:10:37.476Z,101556.84
2022-08-07T16:13:17.935Z,101550.00
2022-08-07T16:16:42.879Z,101545.31
2022-08-07T16:19:04.273Z,101543.00
2022-08-07T16:22:05.681Z,101548.34
2022-08-07T16:24:34.585Z,101544.72
2022-08-07T16:27:05.434Z,101537.47
2022-08-07T16:30:11.334Z,101535.50
2022-08-07T16:32:33.043Z,101542.81
2022-08-07T16:35:51.779Z,101530.31
2022-08-07T16:38:07.431Z,101535.22
2022-08-07T16:40:33.424Z,101530.34
2022-08-07T16:42:45.672Z,101531.63
2022-08-07T16:45:15.388Z,101531.59
2022-08-07T16:47:56.420Z,101528.78
2022-08-07T16:50:52.723Z,101526.38
2022-08-07T16:53:48.260Z,101530.84
2022-08-07T16:56:53.352Z,101517.50
2022-08-07T16:59:24.716Z,101527.19
2022-08-07T17:02:52.881Z,101519.13
2022-08-07T17:04:58.591Z,101517.91
2022-08-07T17:07:28.104Z,101524.78
2022-08-07T17:10:05.057Z,101527.16
2022-08-07T17:12:47.302Z,101523.53
2022-08-07T17:15:15.997Z,101511.38
2022-08-07T17:17:48.539Z,101527.97
2022-08-07T17:20:02.907Z,101517.44
2022-08-07T17:22:19.162Z,101518.63
2022-08-07T17:25:15.536Z,101519.78
2022-08-07T17:28:06.806Z,101518.53
2022-08-07T17:30:15.475Z,101528.16
2022-08-07T17:32:52.285Z,101518.88
2022-08-07T17:35:50.481Z,101524.50
2022-08-07T17:38:08.173Z,101524.50
2022-08-07T17:40:08.049Z,101526.09
2022-08-07T17:42:21.182Z,101528.91
2022-08-07T17:44:33.839Z,101522.03
2022-08-07T17:47:03.143Z,101522.44
2022-08-07T17:49:24.172Z,101518.78
2022-08-07T17:51:49.315Z,101532.09
2022-08-07T17:54:39.873Z,101528.84
2022-08-07T17:57:18.891Z,101522.34
2022-08-07T17:59:44.757Z,101532.06
2022-08-07T18:02:06.825Z,101521.94
2022-08-07T18:04:35.224Z,101521.94
2022-08-07T18:07:20.016Z,101527.56
2022-08-07T18:10:04.914Z,101534.41
2022-08-07T18:12:30.508Z,101534.28
2022-08-07T18:14:47.879Z,101536.28
2022-08-07T18:18:39.739Z,101543.53
2022-08-07T18:21:06.522Z,101547.13
2022-08-07T18:22:54.168Z,101545.06
2022-08-07T18:25:19.048Z,101543.00
2022-08-07T18:27:58.105Z,101546.13
2022-08-07T18:30:31.280Z,101548.84
2022-08-07T18:33:16.426Z,101550.41
2022-08-07T18:35:25.516Z,101556.41
2022-08-07T18:38:57.998Z,101558.28
2022-08-07T18:41:17.056Z,101563.41
2022-08-07T18:43:49.149Z,101568.59
2022-08-07T18:46:22.061Z,101564.09
2022-08-07T18:50:32.619Z,101567.25
2022-08-07T18:52:34.873Z,101573.16
2022-08-07T18:54:30.940Z,101573.00
2022-08-07T18:57:23.350Z,101575.78
2022-08-07T18:59:47.563Z,101572.03
2022-08-07T19:02:34.197Z,101568.69
2022-08-07T19:05:14.954Z,101569.78
2022-08-07T19:07:34.489Z,101578.91
2022-08-07T19:09:57.568Z,101568.22
2022-08-07T19:12:17.906Z,101568.91
2022-08-07T19:14:51.133Z,101574.75
2022-08-07T19:17:07.685Z,101578.66
2022-08-07T19:19:32.811Z,101576.47
2022-08-07T19:21:58.486Z,101588.78
2022-08-07T19:24:12.708Z,101580.59
2022-08-07T19:27:16.683Z,101584.13
2022-08-07T19:31:04.784Z,101581.09
2022-08-07T19:32:08.024Z,101589.22
2022-08-07T19:34:05.087Z,101580.72
2022-08-07T19:36:13.895Z,101585.91
2022-08-07T19:38:17.356Z,101591.13
2022-08-07T19:40:31.739Z,101593.47
2022-08-07T19:42:45.163Z,101595.88
2022-08-07T19:44:47.816Z,101598.94
2022-08-07T19:46:55.790Z,101595.66
2022-08-07T19:49:06.242Z,101597.22
2022-08-07T19:51:20.213Z,101600.03
2022-08-07T19:54:32.022Z,101604.47
2022-08-07T19:55:57.373Z,101607.59
2022-08-07T19:58:13.855Z,101599.09
2022-08-07T20:00:28.213Z,101604.28
2022-08-07T20:02:51.849Z,101601.03
2022-08-07T20:04:56.098Z,101605.41
2022-08-07T20:06:58.360Z,101610.28
2022-08-07T20:09:02.943Z,101606.66
2022-08-07T20:11:15.170Z,101611.03
2022-08-07T20:13:53.505Z,101605.97
2022-08-07T20:15:57.931Z,101610.69
2022-08-07T20:18:03.317Z,101616.25
2022-08-07T20:20:07.190Z,101616.19
2022-08-07T20:22:12.503Z,101613.38
2022-08-07T20:24:31.592Z,101617.34
2022-08-07T20:26:45.248Z,101626.34
2022-08-07T20:28:48.243Z,101625.66
2022-08-07T20:30:50.606Z,101629.41
2022-08-07T20:32:54.094Z,101628.31
2022-08-07T20:35:01.310Z,101636.84
2022-08-07T20:37:09.929Z,101631.84
2022-08-07T20:40:01.458Z,101645.16
2022-08-07T20:41:42.676Z,101640.03
2022-08-07T20:43:47.685Z,101644.81
2022-08-07T20:46:28.667Z,101654.91
2022-08-07T20:48:29.076Z,101651.22
2022-08-07T20:50:32.654Z,101654.66
2022-08-07T20:52:51.458Z,101662.97
2022-08-07T20:54:55.464Z,101657.91
2022-08-07T20:57:04.316Z,101653.34
2022-08-07T20:59:06.574Z,101654.19
2022-08-07T21:01:29.832Z,101653.53
2022-08-07T21:04:18.789Z,101650.38
2022-08-07T21:06:26.010Z,101649.56
2022-08-07T21:08:46.690Z,101642.84
2022-08-07T21:10:49.486Z,101645.88
2022-08-07T21:12:51.495Z,101646.97
2022-08-07T21:14:57.064Z,101644.66
2022-08-07T21:18:00.741Z,101645.22
2022-08-07T21:19:32.101Z,101643.47
2022-08-07T21:21:57.219Z,101649.34
2022-08-07T21:24:24.905Z,101644.34
2022-08-07T21:26:30.702Z,101651.97
2022-08-07T21:28:49.991Z,101651.84
2022-08-07T21:31:08.482Z,101655.09
2022-08-07T21:33:24.619Z,101661.44
2022-08-07T21:36:04.948Z,101660.41
2022-08-07T21:38:14.779Z,101652.94
2022-08-07T21:40:36.028Z,101659.63
2022-08-07T21:42:55.985Z,101665.38
2022-08-07T21:46:09.580Z,101659.53
2022-08-07T21:48:34.355Z,101653.38
2022-08-07T21:50:54.241Z,101660.25
2022-08-07T21:53:08.473Z,101668.03
2022-08-07T21:55:27.805Z,101663.38
2022-08-07T21:57:55.147Z,101653.69
2022-08-07T22:00:23.050Z,101662.66
2022-08-07T22:02:39.712Z,101665.22
2022-08-07T22:04:53.520Z,101670.34
2022-08-07T22:07:06.782Z,101655.53
2022-08-07T22:09:12.795Z,101664.19
2022-08-07T22:11:18.152Z,101666.16
2022-08-07T22:13:24.705Z,101663.69
2022-08-07T22:16:38.517Z,101667.19
2022-08-07T22:19:29.724Z,101666.28
2022-08-07T22:22:20.870Z,101677.09
2022-08-07T22:24:37.924Z,101674.66
2022-08-07T22:26:59.288Z,101672.53
2022-08-07T22:29:47.521Z,101673.50
2022-08-07T22:32:08.264Z,101666.94
2022-08-07T22:34:36.068Z,101672.09
2022-08-07T22:37:05.137Z,101675.13
2022-08-07T22:39:30.103Z,101671.94
2022-08-07T22:42:19.401Z,101676.59
2022-08-07T22:44:22.052Z,101677.28
2022-08-07T22:47:02.697Z,101676.97
2022-08-07T22:49:16.475Z,101670.09
2022-08-07T22:51:37.022Z,101673.44
2022-08-07T22:54:09.438Z,101669.34
2022-08-07T22:56:23.995Z,101669.09
2022-08-07T22:59:10.727Z,101664.06
2022-08-07T23:01:59.127Z,101666.19
2022-08-07T23:04:28.913Z,101670.13
2022-08-07T23:07:40.207Z,101666.38
2022-08-07T23:10:38.226Z,101670.88
2022-08-07T23:12:48.887Z,101672.72
2022-08-07T23:16:04.268Z,101665.28
2022-08-07T23:17:47.626Z,101671.22
2022-08-07T23:20:52.420Z,101673.53
2022-08-07T23:24:06.625Z,101674.22
2022-08-07T23:26:12.390Z,101673.78
2022-08-07T23:28:32.713Z,101664.06
2022-08-07T23:31:06.461Z,101662.50
2022-08-07T23:34:35.094Z,101660.16
2022-08-07T23:36:29.006Z,101656.41
2022-08-07T23:39:21.999Z,101656.75
2022-08-07T23:41:47.432Z,101660.56
2022-08-07T23:44:03.848Z,101660.75
2022-08-07T23:46:42.975Z,101651.59
2022-08-07T23:49:18.257Z,101657.97
2022-08-07T23:52:59.616Z,101657.19
2022-08-07T23:53:54.827Z,101659.34
2022-08-07T23:56:01.558Z,101654.44
2022-08-07T23:58:26.409Z,101655.94
